createdAt,value
2022-09-12T00:00:43.843Z,13.20
2022-09-12T00:03:10.345Z,13.17
2022-09-12T00:05:44.368Z,13.12
2022-09-12T00:08:11.608Z,13.11
2022-09-12T00:10:43.401Z,13.06
2022-09-12T00:13:11.369Z,12.98
2022-09-12T00:15:40.124Z,12.89
2022-09-12T00:18:08.199Z,12.86
2022-09-12T00:20:34.728Z,12.81
2022-09-12T00:23:01.781Z,12.78
2022-09-12T00:25:30.701Z,12.77
2022-09-12T00:27:57.425Z,12.74
2022-09-12T00:30:23.947Z,12.73
2022-09-12T00:32:51.519Z,12.75
2022-09-12T00:35:18.178Z,12.79
2022-09-12T00:37:47.892Z,12.84
2022-09-12T00:40:15.651Z,12.86
2022-09-12T00:42:42.377Z,12.87
2022-09-12T00:45:24.852Z,12.86
2022-09-12T00:47:51.359Z,12.82
2022-09-12T00:50:18.066Z,12.79
2022-09-12T00:52:48.810Z,12.78
2022-09-12T00:55:19.879Z,12.76
2022-09-12T00:57:52.649Z,12.73
2022-09-12T01:00:21.709Z,12.68
2022-09-12T01:03:11.603Z,12.66
2022-09-12T01:05:44.376Z,12.68
2022-09-12T01:08:13.039Z,12.68
2022-09-12T01:10:41.621Z,12.67
2022-09-12T01:13:09.793Z,12.70
2022-09-12T01:15:40.582Z,12.72
2022-09-12T01:18:40.348Z,12.69
2022-09-12T01:21:13.594Z,12.68
2022-09-12T01:23:49.175Z,12.66
2022-09-12T01:26:58.976Z,12.63
2022-09-12T01:29:53.687Z,12.62
2022-09-12T01:32:38.544Z,12.60
2022-09-12T01:35:38.030Z,12.57
2022-09-12T01:38:20.541Z,12.47
2022-09-12T01:41:07.608Z,12.36
2022-09-12T01:43:50.233Z,12.34
2022-09-12T01:46:24.745Z,12.34
2022-09-12T01:48:58.376Z,12.28
2022-09-12T01:51:53.552Z,12.22
2022-09-12T01:54:44.650Z,12.17
2022-09-12T01:57:22.765Z,12.20
2022-09-12T01:59:55.264Z,12.16
2022-09-12T02:02:37.410Z,12.14
2022-09-12T02:05:17.486Z,12.15
2022-09-12T02:07:49.606Z,12.13
2022-09-12T02:10:22.544Z,12.10
2022-09-12T02:12:59.669Z,12.07
2022-09-12T02:15:38.437Z,12.00
2022-09-12T02:18:06.549Z,11.92
2022-09-12T02:20:48.849Z,11.90
2022-09-12T02:23:22.672Z,11.90
2022-09-12T02:25:55.001Z,11.89
2022-09-12T02:28:42.192Z,11.85
2022-09-12T02:31:43.473Z,11.78
2022-09-12T02:34:39.353Z,11.73
2022-09-12T02:37:55.135Z,11.72
2022-09-12T02:40:23.013Z,11.76
2022-09-12T02:42:51.897Z,11.78
2022-09-12T02:45:18.975Z,11.81
2022-09-12T02:47:53.252Z,11.84
2022-09-12T02:50:24.496Z,11.83
2022-09-12T02:52:54.082Z,11.82
2022-09-12T02:55:21.769Z,11.82
2022-09-12T02:57:48.358Z,11.83
2022-09-12T03:00:15.245Z,11.83
2022-09-12T03:03:17.038Z,11.82
2022-09-12T03:06:21.163Z,11.77
2022-09-12T03:12:30.203Z,11.73
2022-09-12T03:15:21.056Z,11.74
2022-09-12T03:18:12.041Z,11.73
2022-09-12T03:21:15.038Z,11.71
2022-09-12T03:24:18.053Z,11.72
2022-09-12T03:27:07.685Z,11.73
2022-09-12T03:29:36.013Z,11.74
2022-09-12T03:32:20.517Z,11.74
2022-09-12T03:34:58.571Z,11.75
2022-09-12T03:40:09.233Z,11.71
2022-09-12T03:42:44.458Z,11.70
2022-09-12T03:45:14.917Z,11.69
2022-09-12T03:47:48.977Z,11.64
2022-09-12T03:50:17.953Z,11.62
2022-09-12T03:52:50.839Z,11.62
2022-09-12T03:55:24.474Z,11.63
2022-09-12T04:00:46.637Z,11.53
2022-09-12T04:03:17.299Z,11.47
2022-09-12T04:05:47.860Z,11.44
2022-09-12T04:08:37.716Z,11.42
2022-09-12T04:11:14.585Z,11.37
2022-09-12T04:13:52.806Z,11.37
2022-09-12T04:16:25.634Z,11.40
2022-09-12T04:19:16.339Z,11.44
2022-09-12T04:21:46.449Z,11.47
2022-09-12T04:24:15.062Z,11.51
2022-09-12T04:26:41.855Z,11.56
2022-09-12T04:29:18.165Z,11.60
2022-09-12T04:34:37.432Z,11.68
2022-09-12T04:37:28.697Z,11.70
2022-09-12T04:40:05.815Z,11.63
2022-09-12T04:44:08.074Z,11.57
2022-09-12T04:48:07.695Z,11.52
2022-09-12T04:50:39.082Z,11.51
2022-09-12T04:56:22.477Z,11.61
2022-09-12T04:59:27.016Z,11.67
2022-09-12T05:02:05.601Z,11.75
2022-09-12T05:04:35.804Z,11.83
2022-09-12T05:07:19.110Z,11.88
2022-09-12T05:09:49.397Z,11.90
2022-09-12T05:12:19.375Z,11.93
2022-09-12T05:14:53.700Z,11.97
2022-09-12T05:17:22.503Z,11.94
2022-09-12T05:20:01.008Z,11.92
2022-09-12T05:22:29.760Z,11.93
2022-09-12T05:24:59.673Z,11.97
2022-09-12T05:28:13.740Z,11.99
2022-09-12T05:30:16.943Z,12.01
2022-09-12T05:32:47.304Z,12.06
2022-09-12T05:35:25.396Z,12.09
2022-09-12T05:37:55.619Z,12.11
2022-09-12T05:40:47.099Z,12.11
2022-09-12T05:43:42.525Z,12.11
2022-09-12T05:46:21.138Z,12.13
2022-09-12T05:48:56.669Z,12.14
2022-09-12T06:23:41.996Z,12.26
2022-09-12T06:26:13.939Z,12.35
2022-09-12T06:28:45.445Z,12.41
2022-09-12T06:31:17.176Z,12.49
2022-09-12T06:34:43.074Z,12.63
2022-09-12T06:37:21.557Z,12.73
2022-09-12T06:39:48.835Z,12.88
2022-09-12T06:42:22.560Z,13.09
2022-09-12T06:47:37.663Z,13.19
2022-09-12T06:50:34.591Z,13.18
2022-09-12T06:53:07.429Z,13.17
2022-09-12T06:55:38.226Z,13.32
2022-09-12T06:58:09.072Z,13.54
2022-09-12T07:00:45.189Z,13.66
2022-09-12T07:06:03.994Z,14.05
2022-09-12T07:11:24.155Z,14.41
2022-09-12T07:14:58.673Z,14.51
2022-09-12T07:17:02.803Z,14.70
2022-09-12T07:19:32.937Z,14.85
2022-09-12T07:22:03.038Z,14.97
2022-09-12T07:24:31.943Z,15.06
2022-09-12T07:27:06.915Z,15.07
2022-09-12T07:29:41.665Z,15.08
2022-09-12T07:32:12.041Z,15.23
2022-09-12T07:34:50.883Z,15.52
2022-09-12T07:37:19.571Z,15.69
2022-09-12T07:39:49.581Z,15.79
2022-09-12T07:42:19.612Z,15.82
2022-09-12T07:44:51.787Z,15.83
2022-09-12T07:47:20.958Z,15.84
2022-09-12T07:50:00.188Z,15.89
2022-09-12T07:52:29.506Z,16.05
2022-09-12T07:54:56.011Z,16.17
2022-09-12T07:57:27.393Z,16.24
2022-09-12T08:00:22.630Z,16.37
2022-09-12T08:03:03.085Z,16.36
2022-09-12T08:05:38.532Z,16.54
2022-09-12T08:08:07.393Z,16.68
2022-09-12T08:11:08.629Z,16.89
2022-09-12T08:13:39.060Z,17.03
2022-09-12T08:16:37.616Z,17.08
2022-09-12T08:19:07.632Z,17.20
2022-09-12T08:21:40.437Z,17.35
2022-09-12T08:27:06.699Z,17.65
2022-09-12T08:30:03.406Z,17.78
2022-09-12T08:45:07.527Z,18.10
2022-09-12T08:57:23.263Z,18.49
2022-09-12T09:00:41.996Z,18.59
2022-09-12T09:04:07.424Z,18.64
2022-09-12T09:07:03.976Z,18.78
2022-09-12T09:10:03.927Z,18.95
2022-09-12T09:12:57.115Z,19.05
2022-09-12T09:18:39.527Z,19.10
2022-09-12T09:21:34.443Z,19.17
2022-09-12T09:24:18.884Z,19.23
2022-09-12T09:30:41.806Z,19.37
2022-09-12T09:33:34.264Z,19.49
2022-09-12T09:36:21.969Z,19.63
2022-09-12T09:39:20.406Z,19.75
2022-09-12T09:42:19.504Z,19.74
2022-09-12T09:45:06.073Z,19.73
2022-09-12T09:47:59.978Z,19.94
2022-09-12T09:50:38.893Z,20.07
2022-09-12T09:53:33.130Z,19.99
2022-09-12T09:56:27.810Z,20.10
2022-09-12T10:01:48.051Z,20.30
2022-09-12T10:05:02.590Z,20.33
2022-09-12T10:11:32.730Z,20.49
2022-09-12T10:20:48.088Z,20.64
2022-09-12T10:23:25.470Z,20.80
2022-09-12T10:26:13.507Z,20.73
2022-09-12T10:31:50.604Z,20.84
2022-09-12T10:34:47.741Z,20.79
2022-09-12T10:37:50.495Z,20.91
2022-09-12T10:40:51.040Z,20.99
2022-09-12T10:43:42.471Z,20.97
2022-09-12T10:46:15.756Z,21.08
2022-09-12T10:48:49.474Z,21.24
2022-09-12T10:51:58.554Z,21.21
2022-09-12T10:57:35.949Z,21.51
2022-09-12T11:00:39.378Z,21.58
2022-09-12T11:03:39.061Z,21.57
2022-09-12T11:06:41.991Z,21.54
2022-09-12T11:09:49.491Z,21.61
2022-09-12T11:12:56.601Z,21.82
2022-09-12T11:15:32.643Z,21.96
2022-09-12T11:18:24.052Z,22.01
2022-09-12T11:24:53.154Z,21.92
2022-09-12T11:27:51.578Z,22.03
2022-09-12T11:30:20.747Z,22.26
2022-09-12T11:33:25.094Z,22.26
2022-09-12T11:35:55.613Z,22.34
2022-09-12T11:38:44.039Z,22.36
2022-09-12T11:41:41.739Z,22.48
2022-09-12T11:44:26.722Z,22.46
2022-09-12T11:47:00.146Z,22.34
2022-09-12T12:06:06.872Z,22.69
2022-09-12T12:35:44.195Z,23.18
2022-09-12T12:38:50.692Z,23.20
2022-09-12T12:43:12.751Z,22.99
2022-09-12T12:44:55.542Z,23.15
2022-09-12T12:53:30.870Z,23.35
2022-09-12T12:59:58.264Z,23.50
2022-09-12T13:02:43.604Z,23.58
2022-09-12T13:05:49.082Z,23.32
2022-09-12T13:08:24.845Z,23.27
2022-09-12T13:17:00.052Z,23.63
2022-09-12T13:19:36.364Z,23.70
2022-09-12T13:22:07.844Z,23.59
2022-09-12T13:24:45.095Z,23.59
2022-09-12T13:27:28.357Z,23.79
2022-09-12T13:30:47.366Z,23.93
2022-09-12T13:33:47.831Z,24.02
2022-09-12T13:38:23.141Z,23.88
2022-09-12T13:39:49.566Z,23.56
2022-09-12T13:45:27.032Z,23.30
2022-09-12T13:48:01.967Z,23.18
2022-09-12T13:51:27.893Z,23.27
2022-09-12T13:59:07.258Z,23.31
2022-09-12T14:05:33.718Z,23.65
2022-09-12T14:08:09.946Z,23.61
2022-09-12T14:13:55.777Z,23.70
2022-09-12T14:16:51.019Z,23.57
2022-09-12T14:22:34.310Z,23.79
2022-09-12T14:25:10.784Z,23.61
2022-09-12T14:28:06.499Z,23.66
2022-09-12T14:31:11.816Z,23.56
2022-09-12T14:38:04.826Z,23.57
2022-09-12T14:40:29.108Z,23.56
2022-09-12T14:43:01.066Z,23.70
2022-09-12T14:45:56.908Z,23.80
2022-09-12T14:48:33.448Z,23.85
2022-09-12T14:51:14.307Z,23.88
2022-09-12T14:54:15.006Z,24.01
2022-09-12T14:56:44.659Z,24.00
2022-09-12T14:59:30.984Z,23.75
2022-09-12T15:02:37.178Z,23.52
2022-09-12T15:05:10.334Z,23.45
2022-09-12T15:08:11.946Z,23.41
2022-09-12T15:10:45.678Z,23.45
2022-09-12T15:13:19.006Z,23.44
2022-09-12T15:16:06.583Z,23.50
2022-09-12T15:18:35.768Z,23.38
2022-09-12T15:21:04.788Z,23.28
2022-09-12T15:24:37.255Z,23.35
2022-09-12T15:29:53.519Z,23.28
2022-09-12T15:32:25.567Z,23.27
2022-09-12T15:34:58.299Z,23.20
2022-09-12T15:37:25.475Z,23.12
2022-09-12T15:40:06.421Z,23.14
2022-09-12T15:42:35.668Z,23.12
2022-09-12T15:45:02.925Z,23.04
2022-09-12T15:47:29.640Z,23.01
2022-09-12T15:49:56.224Z,22.92
2022-09-12T15:52:22.803Z,22.95
2022-09-12T15:54:49.502Z,22.97
2022-09-12T15:57:18.324Z,23.02
2022-09-12T15:59:50.151Z,23.04
2022-09-12T16:02:49.248Z,23.01
2022-09-12T16:05:24.546Z,22.96
2022-09-12T16:07:58.328Z,22.91
2022-09-12T16:10:46.311Z,22.81
2022-09-12T16:13:15.487Z,22.81
2022-09-12T16:15:45.509Z,22.76
2022-09-12T16:21:14.901Z,22.63
2022-09-12T16:24:02.299Z,22.65
2022-09-12T16:26:37.744Z,22.55
2022-09-12T16:32:16.352Z,22.46
2022-09-12T16:37:34.530Z,22.35
2022-09-12T16:43:06.852Z,22.28
2022-09-12T16:45:34.540Z,22.21
2022-09-12T16:55:01.769Z,22.10
2022-09-12T16:55:32.777Z,21.99
2022-09-12T16:58:07.893Z,21.95
2022-09-12T17:00:34.375Z,21.94
2022-09-12T17:03:04.379Z,21.92
2022-09-12T17:05:44.663Z,21.92
2022-09-12T17:09:01.839Z,21.87
2022-09-12T17:11:26.498Z,21.78
2022-09-12T17:17:05.371Z,21.59
2022-09-12T17:19:35.612Z,21.49
2022-09-12T17:22:09.503Z,21.42
2022-09-12T17:24:44.051Z,21.39
2022-09-12T17:27:19.459Z,21.37
2022-09-12T17:33:38.961Z,21.18
2022-09-12T17:35:43.263Z,21.11
2022-09-12T17:39:45.119Z,21.08
2022-09-12T17:41:00.365Z,21.05
2022-09-12T17:46:21.172Z,20.96
2022-09-12T17:48:54.531Z,20.92
2022-09-12T17:51:32.470Z,20.89
2022-09-12T17:55:09.042Z,20.86
2022-09-12T17:57:13.312Z,20.79
2022-09-12T18:00:26.873Z,20.71
2022-09-12T18:02:33.198Z,20.62
2022-09-12T18:07:59.677Z,20.36
2022-09-12T18:14:34.062Z,20.09
2022-09-12T18:17:57.140Z,20.01
2022-09-12T18:19:59.861Z,19.99
2022-09-12T18:22:33.807Z,19.97
2022-09-12T18:25:11.488Z,19.97
2022-09-12T18:27:41.787Z,19.95
2022-09-12T18:31:51.539Z,19.93
2022-09-12T18:33:05.668Z,19.92
2022-09-12T18:35:35.757Z,19.88
2022-09-12T18:38:32.431Z,19.81
2022-09-12T18:41:47.648Z,19.80
2022-09-12T18:44:20.393Z,19.80
2022-09-12T18:46:54.685Z,19.72
2022-09-12T18:49:23.391Z,19.63
2022-09-12T18:54:37.047Z,19.29
2022-09-12T18:57:11.599Z,19.13
2022-09-12T18:59:45.891Z,19.02
2022-09-12T19:05:25.792Z,18.96
2022-09-12T19:08:13.211Z,18.96
2022-09-12T19:14:09.204Z,18.81
2022-09-12T19:16:13.449Z,18.73
2022-09-12T19:18:48.945Z,18.74
2022-09-12T19:21:47.213Z,18.70
2022-09-12T19:30:26.289Z,18.59
2022-09-12T19:33:04.959Z,18.65
2022-09-12T19:38:32.748Z,18.74
2022-09-12T19:41:21.813Z,18.76
2022-09-12T19:43:51.130Z,18.74
2022-09-12T19:46:46.235Z,18.80
2022-09-12T19:49:14.563Z,18.84
2022-09-12T19:51:48.321Z,18.87
2022-09-12T19:54:16.917Z,18.86
2022-09-12T19:57:13.212Z,18.86
2022-09-12T20:02:47.282Z,18.88
2022-09-12T20:05:16.191Z,18.82
2022-09-12T20:07:51.940Z,18.76
2022-09-12T20:13:02.837Z,18.68
2022-09-12T20:22:16.816Z,18.65
2022-09-12T20:25:17.252Z,18.58
2022-09-12T20:28:08.863Z,18.54
2022-09-12T20:33:23.088Z,18.41
2022-09-12T20:41:54.604Z,18.32
2022-09-12T20:47:35.802Z,18.25
2022-09-12T20:50:54.096Z,18.18
2022-09-12T20:54:17.859Z,18.23
2022-09-12T20:56:44.700Z,18.26
2022-09-12T21:06:10.093Z,18.32
2022-09-12T21:12:22.162Z,18.35
2022-09-12T21:14:51.148Z,18.36
2022-09-12T21:17:30.888Z,18.30
2022-09-12T21:20:11.252Z,18.23
2022-09-12T21:25:33.870Z,18.11
2022-09-12T21:28:03.568Z,18.08
2022-09-12T21:33:44.445Z,18.06
2022-09-12T21:36:14.734Z,18.10
2022-09-12T21:38:48.486Z,18.18
2022-09-12T21:41:19.288Z,18.18
2022-09-12T21:50:42.729Z,18.22
2022-09-12T21:53:56.943Z,18.20
2022-09-12T21:58:53.789Z,18.11
2022-09-12T22:01:59.812Z,18.12
2022-09-12T22:04:37.008Z,18.11
2022-09-12T22:09:45.771Z,18.13
2022-09-12T22:16:26.416Z,18.13
2022-09-12T22:18:58.489Z,18.15
2022-09-12T22:21:27.631Z,18.14
2022-09-12T22:27:06.588Z,18.04
2022-09-12T22:29:46.335Z,17.99
2022-09-12T22:32:35.732Z,17.99
2022-09-12T22:35:26.635Z,17.96
2022-09-12T22:37:58.392Z,17.93
2022-09-12T22:41:09.335Z,17.93
2022-09-12T22:43:40.858Z,17.90
2022-09-12T22:46:57.237Z,17.89
2022-09-12T22:49:23.807Z,17.90
2022-09-12T22:51:53.764Z,17.89
2022-09-12T22:54:27.794Z,17.86
2022-09-12T22:56:59.005Z,17.87
2022-09-12T22:59:32.931Z,17.82
2022-09-12T23:02:03.236Z,17.79
2022-09-12T23:04:41.389Z,17.76
2022-09-12T23:07:37.209Z,17.70
2022-09-12T23:12:53.568Z,17.66
2022-09-12T23:18:20.568Z,17.63
2022-09-12T23:21:43.224Z,17.67
2022-09-12T23:24:18.769Z,17.70
2022-09-12T23:26:48.700Z,17.72
2022-09-12T23:29:18.129Z,17.74
2022-09-12T23:31:49.157Z,17.75
2022-09-12T23:34:30.325Z,17.74
2022-09-12T23:37:28.421Z,17.69
2022-09-12T23:39:55.297Z,17.64
2022-09-12T23:42:47.099Z,17.60
2022-09-12T23:45:17.781Z,17.58
2022-09-12T23:47:44.342Z,17.58
2022-09-12T23:50:12.995Z,17.56
2022-09-12T23:52:42.470Z,17.58
2022-09-12T23:55:12.979Z,17.55
2022-09-12T23:57:39.496Z,17.51
